Time;durP1;ratioP1;P1;durP2;ratioP2;P2;SDS_P1;SDS_P2;PMS_P1;PMS_P2;Temp;Humidity;BMP_temperature;BMP_pressure;BME280_temperature;BME280_humidity;BME280_pressure;Samples;Min_cycle;Max_cycle;Signal;HPM_P1;HPM_P2
2022/10/13 00:04:58;;;;;;;22.52;12.60;;;9.30;99.90;;;;;;21075522;28;20036;-51
2022/10/13 00:15:00;;;;;;;19.17;12.70;;;9.40;99.90;;;;;;21059488;28;20032;-60
2022/10/13 00:25:04;;;;;;;23.67;14.20;;;9.50;99.90;;;;;;21054164;28;20385;-59
2022/10/13 00:35:07;;;;;;;22.75;13.10;;;9.60;99.90;;;;;;21074072;28;20558;-51
2022/10/13 00:45:23;;;;;;;22.27;12.75;;;9.70;99.90;;;;;;21074222;28;20196;-59
2022/10/13 00:55:33;;;;;;;22.92;13.65;;;9.70;99.90;;;;;;21073507;28;20040;-53
2022/10/13 01:05:38;;;;;;;22.67;12.60;;;9.80;99.90;;;;;;21073171;28;20040;-51
2022/10/13 01:16:10;;;;;;;23.35;13.45;;;9.90;99.90;;;;;;21083474;28;20485;-53
2022/10/13 01:26:28;;;;;;;20.38;12.52;;;9.80;99.90;;;;;;21062413;28;20447;-55
2022/10/13 01:37:03;;;;;;;22.55;13.23;;;9.80;99.90;;;;;;21088113;28;20115;-59
2022/10/13 01:47:08;;;;;;;22.60;13.70;;;9.70;99.90;;;;;;21087795;28;20555;-49
2022/10/13 01:57:31;;;;;;;18.20;10.50;;;9.50;99.90;;;;;;21086599;28;20431;-48
2022/10/13 02:08:00;;;;;;;19.08;12.05;;;9.40;99.90;;;;;;21085789;28;20081;-49
2022/10/13 02:18:06;;;;;;;;;;;9.50;99.90;;;;;;21075059;28;20063;-59
2022/10/13 02:28:09;;;;;;;19.55;12.73;;;9.30;99.90;;;;;;21073857;28;19934;-52
2022/10/13 02:38:17;;;;;;;17.45;10.68;;;9.00;99.90;;;;;;21083241;28;20052;-53
2022/10/13 02:48:20;;;;;;;20.67;10.55;;;8.50;99.90;;;;;;21082967;28;20040;-59
2022/10/13 02:58:22;;;;;;;32.60;15.95;;;8.10;99.90;;;;;;21081883;28;20101;-57
2022/10/13 03:08:26;;;;;;;21.75;12.60;;;7.80;99.90;;;;;;21080973;28;20536;-52
2022/10/13 03:18:29;;;;;;;26.67;14.27;;;7.40;99.90;;;;;;21066592;28;20443;-49
2022/10/13 03:28:31;;;;;;;27.95;14.82;;;7.10;99.90;;;;;;21072991;28;20028;-59
2022/10/13 03:38:34;;;;;;;24.48;14.07;;;7.00;99.90;;;;;;21078399;28;20052;-59
2022/10/13 03:48:37;;;;;;;21.50;13.40;;;7.10;99.90;;;;;;21077980;28;20032;-49
2022/10/13 03:58:39;;;;;;;26.23;13.15;;;7.00;99.90;;;;;;21077020;28;20081;-50
2022/10/13 04:08:43;;;;;;;18.50;10.85;;;7.00;99.90;;;;;;21076143;28;20109;-52
2022/10/13 04:18:51;;;;;;;21.45;12.30;;;7.00;99.90;;;;;;21059371;28;20090;-49
2022/10/13 04:28:55;;;;;;;21.85;12.57;;;6.70;99.90;;;;;;21071702;28;20081;-52
2022/10/13 04:38:57;;;;;;;24.65;14.63;;;6.60;99.90;;;;;;21074360;28;20060;-52
2022/10/13 04:48:59;;;;;;;27.10;14.10;;;6.60;99.90;;;;;;21073306;28;20439;-49
2022/10/13 04:59:07;;;;;;;20.90;11.80;;;6.60;99.90;;;;;;21073252;28;20036;-52
2022/10/13 05:09:17;;;;;;;17.85;10.85;;;6.60;99.90;;;;;;21072959;28;20037;-49
2022/10/13 05:19:20;;;;;;;17.00;9.57;;;6.50;99.90;;;;;;21035289;28;20086;-51
2022/10/13 05:29:24;;;;;;;19.58;11.13;;;6.40;99.90;;;;;;21072634;28;20184;-52
2022/10/13 05:39:27;;;;;;;20.88;12.38;;;6.40;99.90;;;;;;21054894;28;20044;-48
2022/10/13 05:49:29;;;;;;;23.83;14.85;;;6.50;99.90;;;;;;21071587;28;20028;-52
2022/10/13 05:59:39;;;;;;;32.20;16.65;;;6.60;99.90;;;;;;21059042;28;20082;-52
2022/10/13 06:09:43;;;;;;;32.30;16.42;;;6.70;99.90;;;;;;21085840;28;20170;-50
2022/10/13 06:19:45;;;;;;;25.15;14.07;;;6.70;99.90;;;;;;21064458;28;20062;-52
2022/10/13 06:29:50;;;;;;;29.67;14.45;;;6.80;99.90;;;;;;21085553;28;20032;-52
2022/10/13 06:39:53;;;;;;;22.08;12.18;;;6.90;99.90;;;;;;21083270;28;20066;-51
2022/10/13 06:49:55;;;;;;;19.95;12.27;;;7.30;99.90;;;;;;21082741;28;20032;-49
2022/10/13 06:59:58;;;;;;;22.75;12.20;;;7.50;99.90;;;;;;21082064;28;20036;-49
2022/10/13 07:10:01;;;;;;;23.02;14.50;;;8.00;99.90;;;;;;21081322;28;20036;-51
2022/10/13 07:20:05;;;;;;;33.15;19.80;;;8.70;99.90;;;;;;21059593;28;20484;-50
2022/10/13 07:30:09;;;;;;;28.08;16.20;;;9.90;99.90;;;;;;21079731;28;20295;-49
2022/10/13 07:40:11;;;;;;;19.63;14.18;;;11.30;99.90;;;;;;21078132;28;20443;-50
2022/10/13 07:50:14;;;;;;;21.35;13.60;;;12.90;99.90;;;;;;21077873;28;20032;-51
2022/10/13 08:00:17;;;;;;;19.52;12.73;;;13.80;99.90;;;;;;21077399;28;20027;-51
2022/10/13 08:10:23;;;;;;;18.55;11.30;;;14.60;99.90;;;;;;21076301;28;20103;-49
2022/10/13 08:20:26;;;;;;;16.80;11.20;;;14.80;99.90;;;;;;21054422;28;20035;-50
2022/10/13 08:30:28;;;;;;;17.67;12.02;;;14.40;99.90;;;;;;21075470;28;20028;-47
2022/10/13 08:40:31;;;;;;;16.52;11.98;;;14.60;99.90;;;;;;21074371;28;20110;-50
2022/10/13 08:50:40;;;;;;;13.77;9.80;;;15.70;99.90;;;;;;21057391;28;20056;-49
2022/10/13 09:00:42;;;;;;;14.13;9.13;;;17.00;99.90;;;;;;21056790;28;20032;-50
2022/10/13 09:10:49;;;;;;;12.02;9.25;;;17.50;99.90;;;;;;21056209;28;20857;-51
2022/10/13 09:21:19;;;;;;;14.50;9.80;;;17.00;99.90;;;;;;21034916;28;20578;-51
2022/10/13 09:31:27;;;;;;;13.70;9.68;;;17.10;99.90;;;;;;21056855;28;20105;-53
2022/10/13 09:41:30;;;;;;;13.00;8.97;;;17.10;99.90;;;;;;21070826;28;20040;-52
2022/10/13 09:51:43;;;;;;;13.45;9.73;;;16.70;99.90;;;;;;21070441;28;20105;-52
2022/10/13 10:01:57;;;;;;;15.15;10.25;;;16.00;99.90;;;;;;21069612;28;20036;-49
2022/10/13 10:12:03;;;;;;;14.40;9.93;;;16.00;99.90;;;;;;21068839;28;20036;-49
2022/10/13 10:22:35;;;;;;;16.05;9.27;;;17.40;99.90;;;;;;21047630;28;20081;-48
2022/10/13 10:33:08;;;;;;;12.63;9.05;;;18.30;99.90;;;;;;21067744;28;20044;-61
2022/10/13 10:43:22;;;;;;;13.10;9.40;;;18.60;99.90;;;;;;21065648;28;20089;-60
2022/10/13 10:53:27;;;;;;;18.70;9.68;;;18.30;99.90;;;;;;21065728;28;20144;-49
2022/10/13 11:03:42;;;;;;;13.70;9.38;;;17.80;99.90;;;;;;21048586;28;20032;-53
2022/10/13 11:14:15;;;;;;;14.88;9.63;;;16.80;99.90;;;;;;21063918;28;20397;-51
2022/10/13 11:24:37;;;;;;;22.75;12.00;;;16.50;99.90;;;;;;21042401;28;20093;-49
2022/10/13 11:34:58;;;;;;;14.73;11.23;;;17.80;99.90;;;;;;21062127;28;20028;-50
2022/10/13 11:45:13;;;;;;;15.33;10.57;;;19.10;99.90;;;;;;21061539;28;20493;-51
2022/10/13 11:55:46;;;;;;;17.80;11.23;;;20.20;99.90;;;;;;21057667;28;20093;-52
2022/10/13 12:05:49;;;;;;;16.17;11.77;;;19.90;99.90;;;;;;21047643;28;20044;-51
2022/10/13 12:16:05;;;;;;;15.30;12.70;;;19.30;99.90;;;;;;21042598;28;20036;-49
2022/10/13 12:26:16;;;;;;;19.33;13.93;;;18.30;99.90;;;;;;21037180;28;20032;-54
2022/10/13 12:36:24;;;;;;;22.52;15.10;;;17.00;99.90;;;;;;21057668;28;20024;-52
2022/10/13 12:46:52;;;;;;;17.65;14.32;;;16.30;99.90;;;;;;21057209;28;20044;-52
2022/10/13 12:56:58;;;;;;;22.17;15.70;;;15.80;99.90;;;;;;21040144;28;20024;-53
2022/10/13 13:07:03;;;;;;;25.42;15.80;;;15.80;99.90;;;;;;21012700;28;20494;-54
2022/10/13 13:17:21;;;;;;;26.73;17.90;;;16.60;99.90;;;;;;20917377;28;20033;-63
2022/10/13 13:27:27;;;;;;;23.50;17.42;;;17.10;99.90;;;;;;20951034;28;20079;-60
2022/10/13 13:37:34;;;;;;;23.67;16.73;;;16.80;99.90;;;;;;20947819;28;20052;-59
2022/10/13 13:47:37;;;;;;;24.40;16.83;;;16.50;99.90;;;;;;20943510;28;20037;-60
2022/10/13 13:57:41;;;;;;;29.48;19.73;;;15.90;99.90;;;;;;20970415;28;20481;-62
2022/10/13 14:07:46;;;;;;;29.90;20.05;;;15.50;99.90;;;;;;20909680;28;20063;-52
2022/10/13 14:17:52;;;;;;;29.27;19.52;;;15.00;99.90;;;;;;20916115;28;20044;-47
2022/10/13 14:27:54;;;;;;;26.13;18.38;;;14.60;99.90;;;;;;20988042;28;20102;-58
2022/10/13 14:37:57;;;;;;;26.90;19.15;;;14.50;99.90;;;;;;21009329;28;20116;-51
2022/10/13 14:48:00;;;;;;;26.10;18.25;;;14.50;99.90;;;;;;21045231;28;20031;-48
2022/10/13 14:58:04;;;;;;;33.53;20.25;;;14.20;99.90;;;;;;21060759;28;20081;-47
2022/10/13 15:08:06;;;;;;;28.65;19.50;;;13.70;99.90;;;;;;21043362;28;20036;-58
2022/10/13 15:18:09;;;;;;;32.13;22.38;;;13.30;99.90;;;;;;21048233;28;20037;-48
2022/10/13 15:28:12;;;;;;;33.00;22.88;;;13.10;99.90;;;;;;21048996;28;20051;-51
2022/10/13 15:38:15;;;;;;;34.13;25.20;;;12.80;99.90;;;;;;21030931;28;20114;-50
2022/10/13 15:48:18;;;;;;;40.20;23.42;;;12.40;99.90;;;;;;20890867;28;20033;-51
2022/10/13 15:58:21;;;;;;;32.55;21.27;;;12.00;99.90;;;;;;20940664;28;20179;-50
2022/10/13 16:08:26;;;;;;;26.02;17.45;;;11.70;99.90;;;;;;20951974;28;20032;-59
2022/10/13 16:18:31;;;;;;;24.50;16.75;;;11.20;99.90;;;;;;20954833;28;20440;-48
2022/10/13 16:28:34;;;;;;;24.92;16.80;;;10.70;99.90;;;;;;21042726;28;20056;-53
2022/10/13 16:38:36;;;;;;;22.50;13.57;;;10.20;99.90;;;;;;21052845;28;20405;-50
2022/10/13 16:48:41;;;;;;;19.58;13.13;;;9.90;99.90;;;;;;21052068;28;20102;-58
2022/10/13 16:58:44;;;;;;;21.15;11.90;;;9.60;99.90;;;;;;21052214;28;20032;-59
2022/10/13 17:08:46;;;;;;;15.15;9.23;;;9.20;99.90;;;;;;21051410;28;20028;-57
2022/10/13 17:18:48;;;;;;;13.68;7.93;;;8.80;99.90;;;;;;21034970;28;20109;-59
2022/10/13 17:28:52;;;;;;;15.48;9.27;;;8.50;99.90;;;;;;21047302;28;20040;-52
2022/10/13 17:38:55;;;;;;;13.65;8.75;;;8.20;99.90;;;;;;21022850;28;20037;-50
2022/10/13 17:48:59;;;;;;;13.50;8.93;;;8.00;99.90;;;;;;20884297;28;20033;-58
2022/10/13 17:59:03;;;;;;;12.85;8.43;;;8.00;99.90;;;;;;20975606;28;20052;-53
2022/10/13 18:09:08;;;;;;;13.75;8.50;;;8.00;99.90;;;;;;21020986;28;20401;-48
2022/10/13 18:19:10;;;;;;;14.80;7.95;;;8.00;99.90;;;;;;21044308;28;20094;-49
2022/10/13 18:29:13;;;;;;;14.27;8.15;;;7.90;99.90;;;;;;21062534;28;20164;-59
2022/10/13 18:39:25;;;;;;;16.83;8.35;;;7.80;99.90;;;;;;21059882;28;20535;-49
2022/10/13 18:49:32;;;;;;;13.52;7.30;;;7.80;99.90;;;;;;21061442;28;20477;-52
2022/10/13 18:59:37;;;;;;;12.63;6.80;;;7.90;99.90;;;;;;21061134;28;20053;-51
2022/10/13 19:09:40;;;;;;;14.00;6.90;;;7.90;99.90;;;;;;21042855;28;20044;-50
2022/10/13 19:19:42;;;;;;;13.50;7.05;;;7.90;99.90;;;;;;21038533;28;20534;-52
2022/10/13 19:29:45;;;;;;;11.90;7.95;;;7.80;99.90;;;;;;20900374;28;20087;-50
2022/10/13 19:39:47;;;;;;;12.88;7.00;;;7.70;99.90;;;;;;20855859;28;20046;-58
2022/10/13 19:49:51;;;;;;;11.98;7.18;;;7.80;99.90;;;;;;20799209;28;20037;-48
2022/10/13 19:59:53;;;;;;;14.35;7.53;;;7.90;99.90;;;;;;20799161;28;20049;-49
2022/10/13 20:09:55;;;;;;;11.15;7.68;;;8.00;99.90;;;;;;20887294;28;20048;-52
2022/10/13 20:19:58;;;;;;;13.40;7.78;;;8.00;99.90;;;;;;20949514;28;20029;-50
2022/10/13 20:30:00;;;;;;;16.80;8.77;;;7.90;99.90;;;;;;20970361;28;20032;-49
2022/10/13 20:40:04;;;;;;;11.88;8.48;;;7.80;99.90;;;;;;20998672;28;20056;-60
2022/10/13 20:50:08;;;;;;;17.85;9.70;;;7.70;99.90;;;;;;21052453;28;20113;-52
2022/10/13 21:00:11;;;;;;;16.55;9.88;;;7.80;99.90;;;;;;21052336;28;20454;-59
2022/10/13 21:10:13;;;;;;;19.30;10.60;;;7.80;99.90;;;;;;21051806;28;20028;-47
2022/10/13 21:20:16;;;;;;;21.98;13.50;;;7.90;99.90;;;;;;21015651;28;20032;-49
2022/10/13 21:30:19;;;;;;;35.83;19.40;;;7.80;99.90;;;;;;20924406;28;20111;-50
2022/10/13 21:40:22;;;;;;;25.17;16.60;;;7.80;99.90;;;;;;21001893;28;20192;-52
2022/10/13 21:50:27;;;;;;;32.60;17.92;;;8.00;99.90;;;;;;21066173;28;20051;-53
2022/10/13 22:00:30;;;;;;;40.47;22.00;;;7.80;99.90;;;;;;21065927;28;20040;-49
2022/10/13 22:10:33;;;;;;;44.58;24.17;;;7.70;99.90;;;;;;21064779;28;20109;-57
2022/10/13 22:20:38;;;;;;;37.35;21.58;;;7.50;99.90;;;;;;21043651;28;20451;-49
2022/10/13 22:30:40;;;;;;;44.63;24.83;;;7.40;99.90;;;;;;21047211;28;20036;-53
2022/10/13 22:40:45;;;;;;;51.78;27.40;;;7.40;99.90;;;;;;21062062;28;20056;-59
2022/10/13 22:50:49;;;;;;;49.78;26.95;;;7.40;99.90;;;;;;21061953;28;20093;-50
2022/10/13 23:00:51;;;;;;;52.47;28.13;;;7.50;99.90;;;;;;21061256;28;20036;-52
2022/10/13 23:10:54;;;;;;;46.92;25.10;;;7.40;99.90;;;;;;21060279;28;20035;-58
2022/10/13 23:20:56;;;;;;;45.08;25.50;;;7.50;99.90;;;;;;21039072;28;20097;-51
2022/10/13 23:31:03;;;;;;;49.13;26.50;;;7.70;99.90;;;;;;21058944;28;20085;-49
2022/10/13 23:41:08;;;;;;;51.88;26.52;;;7.50;99.90;;;;;;21041887;28;20048;-52
2022/10/13 23:51:15;;;;;;;53.33;28.83;;;7.30;99.90;;;;;;21056914;28;20099;-50
